Time;durP1;ratioP1;P1;durP2;ratioP2;P2;SDS_P1;SDS_P2;PMS_P1;PMS_P2;Temp;Humidity;BMP_temperature;BMP_pressure;BME280_temperature;BME280_humidity;BME280_pressure;Samples;Min_cycle;Max_cycle;Signal;HPM_P1;HPM_P2
2022/11/13 00:00:32;;;;;;;14.48;8.55;;;5.10;99.90;;;;;;5152898;28;20030;-76
2022/11/13 00:03:31;;;;;;;15.20;9.23;;;5.00;99.90;;;;;;5173340;28;20037;-76
2022/11/13 00:06:34;;;;;;;12.85;8.98;;;4.90;99.90;;;;;;5173920;28;20766;-75
2022/11/13 00:09:34;;;;;;;17.80;10.02;;;4.90;99.90;;;;;;5171198;28;20041;-77
2022/11/13 00:12:36;;;;;;;14.52;9.05;;;4.90;99.90;;;;;;5173580;28;20213;-75
2022/11/13 00:15:29;;;;;;;16.55;9.23;;;4.90;99.90;;;;;;5205700;28;20029;-75
2022/11/13 00:18:55;;;;;;;19.48;9.32;;;5.00;99.90;;;;;;5187521;28;20040;-75
2022/11/13 00:21:47;;;;;;;16.60;10.15;;;4.90;99.90;;;;;;5168089;28;20384;-76
2022/11/13 00:24:47;;;;;;;19.67;10.48;;;4.90;99.90;;;;;;5140732;28;20031;-76
2022/11/13 00:27:40;;;;;;;19.30;11.90;;;4.90;99.90;;;;;;5154365;28;20226;-77
2022/11/13 00:30:36;;;;;;;18.45;9.90;;;4.90;99.90;;;;;;5166029;28;20311;-74
2022/11/13 00:33:46;;;;;;;18.35;11.63;;;4.80;99.90;;;;;;5174130;28;20036;-75
2022/11/13 00:36:41;;;;;;;14.70;9.50;;;4.70;99.90;;;;;;5175810;28;20230;-75
2022/11/13 00:40:03;;;;;;;19.83;10.02;;;4.80;99.90;;;;;;5158232;28;20024;-76
2022/11/13 00:43:01;;;;;;;15.80;9.63;;;4.80;99.90;;;;;;5187390;28;20040;-76
2022/11/13 00:46:01;;;;;;;17.25;9.48;;;4.70;99.90;;;;;;5173331;28;20030;-76
2022/11/13 00:48:55;;;;;;;17.42;9.55;;;4.60;99.90;;;;;;5172123;28;20033;-76
2022/11/13 00:51:54;;;;;;;19.40;11.20;;;4.40;99.90;;;;;;5171857;28;20038;-76
2022/11/13 00:54:48;;;;;;;20.15;10.57;;;4.20;99.90;;;;;;5173117;28;20026;-75
2022/11/13 00:57:48;;;;;;;17.27;10.20;;;4.20;99.90;;;;;;5181762;28;20038;-75
2022/11/13 01:00:49;;;;;;;17.83;10.30;;;4.20;99.90;;;;;;5141772;28;20495;-75
2022/11/13 01:03:45;;;;;;;16.70;9.75;;;4.30;99.90;;;;;;5188705;28;20025;-75
2022/11/13 01:06:38;;;;;;;19.17;10.68;;;4.30;99.90;;;;;;5176387;28;20054;-77
2022/11/13 01:09:30;;;;;;;19.75;11.02;;;4.30;99.90;;;;;;5186235;28;20064;-75
2022/11/13 01:12:22;;;;;;;17.75;10.38;;;4.30;99.90;;;;;;5199995;28;20025;-77
2022/11/13 01:15:18;;;;;;;19.40;11.05;;;4.30;99.90;;;;;;5173838;28;20052;-76
2022/11/13 01:18:17;;;;;;;23.45;11.48;;;4.10;99.90;;;;;;5194375;28;20026;-75
2022/11/13 01:21:21;;;;;;;20.70;12.38;;;4.10;99.90;;;;;;5164133;28;20041;-75
2022/11/13 01:24:12;;;;;;;25.73;12.75;;;4.20;99.90;;;;;;5167465;28;20029;-75
2022/11/13 01:27:09;;;;;;;19.98;11.98;;;4.30;99.90;;;;;;5178674;28;20034;-76
2022/11/13 01:30:03;;;;;;;17.55;10.52;;;4.40;99.90;;;;;;5194150;28;20041;-75
2022/11/13 01:32:57;;;;;;;19.73;10.95;;;4.40;99.90;;;;;;5186547;28;20033;-74
2022/11/13 01:36:06;;;;;;;17.35;10.60;;;4.50;99.90;;;;;;5200209;28;20025;-75
2022/11/13 01:38:59;;;;;;;20.02;11.30;;;4.50;99.90;;;;;;5192415;28;20040;-75
2022/11/13 01:41:51;;;;;;;18.80;9.93;;;4.40;99.90;;;;;;5191322;28;20022;-74
2022/11/13 01:44:57;;;;;;;19.05;10.88;;;4.30;99.90;;;;;;5192045;28;20021;-76
2022/11/13 01:47:52;;;;;;;15.07;9.85;;;4.20;99.90;;;;;;5186038;28;20040;-75
2022/11/13 01:50:44;;;;;;;18.98;10.55;;;4.20;99.90;;;;;;5169809;28;20049;-75
2022/11/13 01:53:36;;;;;;;18.73;10.52;;;4.10;99.90;;;;;;5192847;28;20021;-74
2022/11/13 01:56:32;;;;;;;18.48;10.38;;;4.10;99.90;;;;;;5183452;28;20029;-75
2022/11/13 01:59:32;;;;;;;16.48;10.30;;;3.90;99.90;;;;;;5182682;28;20033;-75
2022/11/13 02:02:28;;;;;;;16.65;9.52;;;4.00;99.90;;;;;;5188327;28;20307;-75
2022/11/13 02:05:23;;;;;;;16.90;9.55;;;3.90;99.90;;;;;;5176462;28;20045;-74
2022/11/13 02:08:14;;;;;;;17.83;10.15;;;3.90;99.90;;;;;;5167426;28;20040;-75
2022/11/13 02:11:06;;;;;;;20.90;10.20;;;3.80;99.90;;;;;;5208853;28;20056;-75
2022/11/13 02:13:59;;;;;;;17.83;10.38;;;3.90;99.90;;;;;;5195960;28;20017;-75
2022/11/13 02:16:58;;;;;;;18.10;10.05;;;4.00;99.90;;;;;;5216071;28;20221;-74
2022/11/13 02:19:54;;;;;;;16.73;8.98;;;4.10;99.90;;;;;;5184930;28;20039;-74
2022/11/13 02:22:57;;;;;;;17.33;9.98;;;4.20;99.90;;;;;;5204556;28;20023;-74
2022/11/13 02:25:53;;;;;;;20.65;9.20;;;4.20;99.90;;;;;;5222486;28;20019;-73
2022/11/13 02:28:45;;;;;;;17.77;9.10;;;4.20;99.90;;;;;;5154657;28;20050;-75
2022/11/13 02:31:46;;;;;;;16.35;8.95;;;4.10;99.90;;;;;;5157811;28;20047;-75
2022/11/13 02:34:40;;;;;;;18.05;8.57;;;4.20;99.90;;;;;;5149711;28;20049;-75
2022/11/13 02:37:38;;;;;;;11.82;7.05;;;4.10;99.90;;;;;;5157134;28;20026;-75
2022/11/13 02:40:32;;;;;;;13.77;8.10;;;3.90;99.90;;;;;;5137403;28;20074;-74
2022/11/13 02:43:24;;;;;;;14.68;8.68;;;3.80;99.90;;;;;;5153083;28;20027;-75
2022/11/13 02:46:26;;;;;;;17.40;9.48;;;3.80;99.90;;;;;;5167675;28;20224;-74
2022/11/13 02:49:19;;;;;;;16.13;8.73;;;3.80;99.90;;;;;;5153331;28;20184;-74
2022/11/13 02:52:14;;;;;;;15.77;8.77;;;3.80;99.90;;;;;;5143942;28;20035;-75
2022/11/13 02:55:15;;;;;;;16.58;9.80;;;3.70;99.90;;;;;;5173176;28;20026;-74
2022/11/13 02:58:09;;;;;;;12.30;7.70;;;3.70;99.90;;;;;;5159957;28;20042;-74
2022/11/13 03:01:07;;;;;;;20.98;10.35;;;3.70;99.90;;;;;;5165391;28;20053;-73
2022/11/13 03:04:05;;;;;;;17.52;9.60;;;3.80;99.90;;;;;;5178992;28;20042;-75
2022/11/13 03:07:09;;;;;;;16.77;9.55;;;3.80;99.90;;;;;;5117297;28;20065;-75
2022/11/13 03:10:05;;;;;;;16.42;9.13;;;4.00;99.90;;;;;;5173114;28;20057;-75
2022/11/13 03:13:23;;;;;;;16.48;8.93;;;4.30;99.90;;;;;;5176654;28;20086;-75
2022/11/13 03:16:19;;;;;;;17.38;9.52;;;4.40;99.90;;;;;;5121961;29;20111;-75
2022/11/13 03:19:37;;;;;;;15.27;8.77;;;4.60;99.90;;;;;;5081916;29;20048;-75
2022/11/13 03:22:32;;;;;;;16.73;10.10;;;4.70;99.90;;;;;;5123475;28;20039;-74
2022/11/13 03:25:24;;;;;;;16.42;8.57;;;4.80;99.90;;;;;;5108509;29;20039;-74
2022/11/13 03:28:20;;;;;;;12.27;8.18;;;4.80;99.90;;;;;;5130594;28;20039;-74
2022/11/13 03:31:18;;;;;;;14.82;8.88;;;4.90;99.90;;;;;;5118204;29;20034;-74
2022/11/13 03:34:18;;;;;;;14.07;8.15;;;4.80;99.90;;;;;;5125700;28;20023;-73
2022/11/13 03:37:13;;;;;;;15.80;8.50;;;4.70;99.90;;;;;;5091902;29;20048;-74
2022/11/13 03:40:16;;;;;;;14.07;8.98;;;4.80;99.90;;;;;;5124004;28;20028;-73
2022/11/13 03:43:13;;;;;;;15.45;9.35;;;4.80;99.90;;;;;;5108177;29;20048;-76
2022/11/13 03:46:16;;;;;;;18.20;8.25;;;4.80;99.90;;;;;;5122599;29;20043;-75
2022/11/13 03:49:13;;;;;;;12.68;7.70;;;4.80;99.90;;;;;;5103397;29;20040;-74
2022/11/13 03:52:10;;;;;;;18.27;10.63;;;4.80;99.90;;;;;;5149449;28;20026;-75
2022/11/13 03:55:05;;;;;;;14.07;8.90;;;4.70;99.90;;;;;;5198821;28;20028;-74
2022/11/13 03:58:14;;;;;;;16.98;9.07;;;4.70;99.90;;;;;;5178220;28;20337;-75
2022/11/13 04:01:06;;;;;;;16.60;8.95;;;4.70;99.90;;;;;;5202930;28;20042;-73
2022/11/13 04:03:59;;;;;;;16.25;9.00;;;4.70;99.90;;;;;;5199008;28;20029;-74
2022/11/13 04:06:53;;;;;;;23.25;10.98;;;4.60;99.90;;;;;;5156044;28;20054;-75
2022/11/13 04:09:51;;;;;;;13.60;8.83;;;4.60;99.90;;;;;;5186617;28;20034;-74
2022/11/13 04:12:46;;;;;;;15.38;9.00;;;4.60;99.90;;;;;;5170278;28;20026;-73
2022/11/13 04:15:40;;;;;;;17.42;9.75;;;4.70;99.90;;;;;;5199221;28;20022;-74
2022/11/13 04:18:32;;;;;;;18.60;10.80;;;4.60;99.90;;;;;;5204515;28;20037;-74
2022/11/13 04:21:27;;;;;;;22.20;11.13;;;4.70;99.90;;;;;;5140794;28;20035;-74
2022/11/13 04:24:21;;;;;;;30.10;11.43;;;4.80;99.90;;;;;;5116034;28;20045;-74
2022/11/13 04:27:23;;;;;;;34.67;12.40;;;4.90;99.90;;;;;;5116249;28;20031;-73
2022/11/13 04:30:15;;;;;;;26.65;12.70;;;5.10;99.90;;;;;;5134122;28;20135;-76
2022/11/13 04:33:10;;;;;;;25.85;11.30;;;5.20;99.90;;;;;;5097275;29;20027;-75
2022/11/13 04:36:09;;;;;;;23.05;11.38;;;5.30;99.90;;;;;;5124220;29;20039;-76
2022/11/13 04:39:05;;;;;;;30.00;12.43;;;5.40;99.90;;;;;;5138229;28;20019;-74
2022/11/13 04:45:10;;;;;;;26.00;10.73;;;5.50;99.90;;;;;;5129391;28;20043;-75
2022/11/13 04:48:05;;;;;;;24.90;11.70;;;5.60;99.90;;;;;;5133705;28;20014;-76
2022/11/13 04:50:56;;;;;;;31.23;12.75;;;5.60;99.90;;;;;;5117603;28;20324;-76
2022/11/13 04:53:47;;;;;;;33.65;12.40;;;5.60;99.90;;;;;;5186530;28;20017;-75
2022/11/13 04:56:41;;;;;;;33.60;14.95;;;5.60;99.90;;;;;;5187004;28;20070;-75
2022/11/13 04:59:35;;;;;;;23.05;13.15;;;5.60;99.90;;;;;;5185534;28;20331;-75
2022/11/13 05:02:28;;;;;;;69.80;13.80;;;5.70;99.90;;;;;;5186781;28;20030;-76
2022/11/13 05:05:24;;;;;;;34.15;12.88;;;5.70;99.90;;;;;;5177942;28;20054;-75
2022/11/13 05:08:15;;;;;;;30.88;13.10;;;5.70;99.90;;;;;;5186769;28;20052;-77
2022/11/13 05:11:10;;;;;;;33.55;14.07;;;5.70;99.90;;;;;;5155900;28;20030;-77
2022/11/13 05:14:07;;;;;;;30.02;12.73;;;5.70;99.90;;;;;;5171193;28;20045;-75
2022/11/13 05:17:03;;;;;;;28.67;13.25;;;5.70;99.90;;;;;;5188288;28;20034;-77
2022/11/13 05:19:54;;;;;;;35.33;13.63;;;5.50;99.90;;;;;;5182759;28;20045;-79
2022/11/13 05:22:53;;;;;;;32.10;14.73;;;5.50;99.90;;;;;;5177387;28;20258;-77
2022/11/13 05:25:44;;;;;;;51.67;13.57;;;5.40;99.90;;;;;;5173499;28;20030;-77
2022/11/13 05:28:39;;;;;;;39.53;12.27;;;5.30;99.90;;;;;;5190820;28;20604;-76
2022/11/13 05:31:31;;;;;;;29.50;11.80;;;5.10;99.90;;;;;;5190582;28;20032;-75
2022/11/13 05:34:23;;;;;;;36.00;12.73;;;5.10;99.90;;;;;;5176876;28;20083;-75
2022/11/13 05:37:15;;;;;;;41.22;12.52;;;5.00;99.90;;;;;;5190363;28;20241;-77
2022/11/13 05:40:07;;;;;;;34.72;11.25;;;5.00;99.90;;;;;;5181375;28;20068;-77
2022/11/13 05:43:06;;;;;;;65.00;13.45;;;5.10;99.90;;;;;;5173368;28;20243;-77
2022/11/13 05:46:11;;;;;;;32.42;12.50;;;5.20;99.90;;;;;;5157039;28;20271;-76
2022/11/13 05:49:03;;;;;;;43.05;14.15;;;5.30;99.90;;;;;;5171164;28;20282;-76
2022/11/13 05:51:59;;;;;;;26.63;13.25;;;5.30;99.90;;;;;;5181199;28;20026;-76
2022/11/13 05:54:55;;;;;;;42.72;13.70;;;5.30;99.90;;;;;;5191555;28;20026;-76
2022/11/13 05:57:47;;;;;;;47.40;14.70;;;5.20;99.90;;;;;;5175963;28;20132;-76
2022/11/13 06:00:38;;;;;;;42.47;13.75;;;5.20;99.90;;;;;;5159686;28;20044;-76
2022/11/13 06:03:30;;;;;;;36.08;15.32;;;5.10;99.90;;;;;;5169044;28;20029;-76
2022/11/13 06:06:25;;;;;;;39.83;15.23;;;5.00;99.90;;;;;;5162706;28;20041;-76
2022/11/13 06:09:19;;;;;;;71.40;17.25;;;5.00;99.90;;;;;;5172059;28;20037;-76
2022/11/13 06:12:11;;;;;;;57.22;15.30;;;5.00;99.90;;;;;;5187212;28;20271;-76
2022/11/13 06:15:03;;;;;;;53.40;14.00;;;5.00;99.90;;;;;;5189828;28;20034;-76
2022/11/13 06:17:56;;;;;;;70.75;15.52;;;4.90;99.90;;;;;;5205115;28;20033;-77
2022/11/13 06:20:48;;;;;;;32.00;16.02;;;4.90;99.90;;;;;;5188474;28;20029;-77
2022/11/13 06:23:45;;;;;;;40.33;16.58;;;4.90;99.90;;;;;;5175351;28;20234;-76
2022/11/13 06:26:44;;;;;;;35.28;16.10;;;5.00;99.90;;;;;;5191879;28;20022;-76
2022/11/13 06:29:36;;;;;;;36.15;15.85;;;4.90;99.90;;;;;;5187584;28;20031;-75
2022/11/13 06:32:28;;;;;;;31.63;16.08;;;4.80;99.90;;;;;;5182086;28;20030;-76
2022/11/13 06:35:24;;;;;;;85.97;18.80;;;4.80;99.90;;;;;;5173547;28;20040;-76
2022/11/13 06:38:21;;;;;;;62.58;16.00;;;4.80;99.90;;;;;;5210667;28;20025;-75
2022/11/13 06:41:14;;;;;;;63.35;16.27;;;4.80;99.90;;;;;;5187566;28;20025;-76
2022/11/13 06:44:10;;;;;;;57.63;18.30;;;4.80;99.90;;;;;;5190325;28;20227;-76
2022/11/13 06:47:02;;;;;;;57.13;18.13;;;4.90;99.90;;;;;;5192580;28;20032;-76
2022/11/13 06:49:59;;;;;;;39.65;15.43;;;4.90;99.90;;;;;;5175188;28;20041;-75
2022/11/13 06:52:53;;;;;;;79.10;18.33;;;4.90;99.90;;;;;;5167491;28;20034;-76
2022/11/13 06:55:49;;;;;;;41.88;17.85;;;5.00;99.90;;;;;;5187508;28;20372;-76
2022/11/13 06:58:41;;;;;;;49.92;19.33;;;5.00;99.90;;;;;;5170492;28;20036;-76
2022/11/13 07:01:32;;;;;;;50.00;17.70;;;5.00;99.90;;;;;;5184901;28;20033;-76
2022/11/13 07:04:23;;;;;;;75.70;17.77;;;5.10;99.90;;;;;;5164553;28;20025;-76
2022/11/13 07:07:15;;;;;;;50.08;18.25;;;5.20;99.90;;;;;;5188647;28;20048;-75
2022/11/13 07:10:09;;;;;;;42.65;16.85;;;5.10;99.90;;;;;;5141520;28;20037;-76
2022/11/13 07:13:00;;;;;;;40.45;16.48;;;5.10;99.90;;;;;;5171272;28;20032;-76
2022/11/13 07:15:52;;;;;;;66.60;19.23;;;5.20;99.90;;;;;;5208931;28;20022;-76
2022/11/13 07:18:56;;;;;;;58.65;19.25;;;5.20;99.90;;;;;;5189575;28;20022;-76
2022/11/13 07:21:48;;;;;;;57.67;19.00;;;5.20;99.90;;;;;;5164149;28;20282;-75
2022/11/13 07:24:41;;;;;;;36.40;17.67;;;5.30;99.90;;;;;;5183124;28;20242;-77
2022/11/13 07:27:32;;;;;;;64.35;19.20;;;5.40;99.90;;;;;;5189851;28;20223;-76
2022/11/13 07:30:27;;;;;;;38.13;18.48;;;5.50;99.90;;;;;;5214767;28;20210;-76
2022/11/13 07:33:18;;;;;;;72.22;19.38;;;5.60;99.90;;;;;;5173945;28;20215;-75
2022/11/13 07:36:12;;;;;;;39.53;18.83;;;5.60;99.90;;;;;;5169673;28;20026;-76
2022/11/13 07:39:06;;;;;;;51.15;19.30;;;5.80;99.90;;;;;;5157771;28;20084;-76
2022/11/13 07:41:57;;;;;;;35.10;18.65;;;5.70;99.90;;;;;;5163003;28;20038;-75
2022/11/13 07:44:54;;;;;;;44.85;18.90;;;5.80;99.90;;;;;;5183824;28;20044;-76
2022/11/13 07:47:48;;;;;;;40.22;18.98;;;5.90;99.90;;;;;;5177321;28;20028;-76
2022/11/13 07:50:39;;;;;;;35.38;18.95;;;6.00;99.90;;;;;;5191430;28;20376;-77
2022/11/13 07:53:40;;;;;;;45.83;19.52;;;5.90;99.90;;;;;;5174639;28;20032;-77
2022/11/13 07:56:41;;;;;;;35.33;18.15;;;5.90;99.90;;;;;;5175725;28;20024;-78
2022/11/13 07:59:41;;;;;;;55.13;17.85;;;5.90;99.90;;;;;;5170516;28;20044;-77
2022/11/13 08:02:38;;;;;;;36.50;17.75;;;5.90;99.90;;;;;;5176329;28;20365;-77
2022/11/13 08:05:39;;;;;;;41.45;17.40;;;5.90;99.90;;;;;;5135180;28;20055;-75
2022/11/13 08:08:30;;;;;;;32.20;18.25;;;6.00;99.90;;;;;;5165869;28;20030;-75
2022/11/13 08:11:31;;;;;;;29.45;16.17;;;6.00;99.90;;;;;;5182863;28;20036;-75
2022/11/13 08:14:37;;;;;;;38.33;16.73;;;6.00;99.90;;;;;;5181992;28;20029;-75
2022/11/13 08:17:29;;;;;;;32.92;15.65;;;5.90;99.90;;;;;;5148665;28;20339;-75
2022/11/13 08:20:30;;;;;;;29.10;17.00;;;5.90;99.90;;;;;;5156041;28;20037;-74
2022/11/13 08:23:33;;;;;;;1937.00;626.08;;;5.90;99.90;;;;;;5177773;28;20057;-76
2022/11/13 08:26:30;;;;;;;904.97;481.05;;;6.10;99.90;;;;;;5169241;28;20037;-76
2022/11/13 08:29:30;;;;;;;525.90;367.80;;;6.10;99.90;;;;;;5188197;28;20030;-75
2022/11/13 08:32:28;;;;;;;263.42;207.52;;;6.10;99.90;;;;;;5187588;28;20243;-75
2022/11/13 08:35:38;;;;;;;414.88;331.55;;;6.10;99.90;;;;;;5181191;28;20353;-74
2022/11/13 08:38:39;;;;;;;122.05;85.45;;;6.20;99.90;;;;;;5174140;28;20044;-75
2022/11/13 08:41:34;;;;;;;235.60;178.60;;;6.50;99.90;;;;;;5172786;28;20041;-77
2022/11/13 08:44:27;;;;;;;159.83;84.80;;;6.60;99.90;;;;;;5162294;28;20037;-75
2022/11/13 08:47:27;;;;;;;75.70;39.90;;;6.60;99.90;;;;;;5192276;28;20045;-74
2022/11/13 08:50:48;;;;;;;507.25;310.30;;;6.50;99.90;;;;;;5154997;28;20046;-76
2022/11/13 08:53:39;;;;;;;415.38;235.85;;;6.70;99.90;;;;;;5153536;28;20033;-76
2022/11/13 08:56:34;;;;;;;677.70;415.05;;;6.60;99.90;;;;;;5166552;28;20026;-76
2022/11/13 08:59:33;;;;;;;541.00;360.48;;;6.80;99.90;;;;;;5165032;28;20048;-75
2022/11/13 09:02:25;;;;;;;505.75;332.05;;;6.70;99.90;;;;;;5152526;28;20046;-73
2022/11/13 09:05:17;;;;;;;455.17;254.90;;;7.00;99.90;;;;;;5170988;28;20054;-73
2022/11/13 09:08:09;;;;;;;178.68;104.93;;;6.90;99.90;;;;;;5189670;28;20038;-74
2022/11/13 09:11:06;;;;;;;66.55;36.15;;;7.10;99.90;;;;;;5187612;28;20037;-75
2022/11/13 09:14:02;;;;;;;130.30;75.45;;;7.50;99.90;;;;;;5183107;28;20025;-73
2022/11/13 09:16:53;;;;;;;114.03;73.45;;;7.50;99.90;;;;;;5174963;28;20095;-74
2022/11/13 09:19:47;;;;;;;55.58;27.63;;;7.20;99.90;;;;;;5162823;28;20030;-73
2022/11/13 09:22:39;;;;;;;54.25;26.88;;;7.20;99.90;;;;;;5143628;28;20044;-74
2022/11/13 09:25:39;;;;;;;258.83;131.77;;;7.50;99.90;;;;;;5171312;28;20072;-73
2022/11/13 09:28:34;;;;;;;102.53;70.18;;;7.70;99.90;;;;;;5171432;28;20455;-75
2022/11/13 09:31:30;;;;;;;247.80;189.15;;;7.90;99.90;;;;;;5162492;28;20048;-74
2022/11/13 09:34:23;;;;;;;96.63;74.63;;;8.10;99.90;;;;;;5173805;28;20034;-75
2022/11/13 09:37:18;;;;;;;52.65;31.70;;;8.10;99.90;;;;;;5173807;28;20037;-75
2022/11/13 09:40:28;;;;;;;396.87;287.33;;;8.20;99.90;;;;;;5185429;28;20038;-74
2022/11/13 09:43:42;;;;;;;452.50;402.60;;;8.00;99.90;;;;;;5187704;28;20350;-75
2022/11/13 09:46:50;;;;;;;64.60;45.25;;;8.20;99.90;;;;;;5166723;28;20030;-74
2022/11/13 09:49:51;;;;;;;121.28;103.18;;;8.20;99.90;;;;;;5210103;28;20017;-73
2022/11/13 09:52:45;;;;;;;44.90;33.13;;;8.40;99.90;;;;;;5178517;28;20529;-75
2022/11/13 09:55:46;;;;;;;162.93;127.07;;;8.60;99.90;;;;;;5190253;28;20026;-74
2022/11/13 09:59:02;;;;;;;40.00;23.58;;;8.80;99.90;;;;;;5187375;28;20026;-74
2022/11/13 10:02:21;;;;;;;35.42;21.58;;;8.80;99.90;;;;;;5196462;28;20037;-74
2022/11/13 10:05:51;;;;;;;30.42;17.63;;;8.80;99.90;;;;;;5179811;28;20053;-75
2022/11/13 10:09:07;;;;;;;28.48;16.70;;;8.80;99.90;;;;;;5169809;28;20040;-74
2022/11/13 10:12:07;;;;;;;33.17;16.50;;;8.90;99.90;;;;;;5171850;28;20411;-75
2022/11/13 10:15:03;;;;;;;36.38;20.23;;;8.90;99.90;;;;;;5173521;28;20030;-75
2022/11/13 10:18:04;;;;;;;34.22;16.60;;;9.00;99.90;;;;;;5175204;28;20044;-74
2022/11/13 10:21:05;;;;;;;35.33;18.63;;;8.60;99.90;;;;;;5166091;28;20032;-75
2022/11/13 10:24:04;;;;;;;37.35;19.45;;;8.70;99.90;;;;;;5154826;28;20022;-75
2022/11/13 10:26:59;;;;;;;34.45;17.05;;;8.80;99.90;;;;;;5155003;28;20052;-75
2022/11/13 10:29:55;;;;;;;31.58;16.75;;;9.30;99.90;;;;;;5169901;28;20038;-75
2022/11/13 10:32:48;;;;;;;30.00;17.42;;;9.70;99.90;;;;;;5189539;28;20034;-75
2022/11/13 10:36:01;;;;;;;38.13;22.10;;;10.00;99.90;;;;;;5175357;28;20028;-74
2022/11/13 10:39:04;;;;;;;30.90;17.77;;;9.60;99.90;;;;;;5191695;28;20026;-75
2022/11/13 10:42:01;;;;;;;33.90;18.40;;;9.60;99.90;;;;;;5169198;28;20026;-75
2022/11/13 10:44:59;;;;;;;31.80;18.30;;;9.60;99.90;;;;;;5175989;28;20034;-75
2022/11/13 10:47:51;;;;;;;33.42;17.13;;;9.80;99.90;;;;;;5175082;28;20030;-75
2022/11/13 10:51:00;;;;;;;29.67;17.40;;;10.30;99.90;;;;;;5182181;28;20033;-75
2022/11/13 10:53:56;;;;;;;32.42;19.27;;;10.90;99.90;;;;;;5178761;28;20018;-75
2022/11/13 10:57:03;;;;;;;31.63;18.17;;;11.40;99.90;;;;;;5176396;28;20227;-75
2022/11/13 10:59:55;;;;;;;34.35;19.55;;;11.90;99.90;;;;;;5186892;28;20034;-75
2022/11/13 11:02:50;;;;;;;43.72;26.83;;;11.60;99.90;;;;;;5202266;28;20065;-75
2022/11/13 11:05:56;;;;;;;45.13;31.70;;;11.50;99.90;;;;;;5168747;28;20073;-74
2022/11/13 11:08:48;;;;;;;35.38;24.40;;;11.50;99.90;;;;;;5187805;28;20240;-76
2022/11/13 11:15:36;;;;;;;41.88;27.08;;;13.00;99.90;;;;;;5167900;28;20018;-76
2022/11/13 11:18:47;;;;;;;32.03;18.95;;;14.30;99.90;;;;;;5188680;28;20196;-75
2022/11/13 11:21:44;;;;;;;23.30;15.07;;;16.30;99.90;;;;;;5181123;28;20041;-76
2022/11/13 11:24:40;;;;;;;27.55;17.98;;;17.60;99.90;;;;;;5178497;28;20030;-76
2022/11/13 11:27:49;;;;;;;22.75;13.73;;;18.50;99.90;;;;;;5174524;28;20018;-77
2022/11/13 11:31:03;;;;;;;24.58;15.65;;;19.60;99.90;;;;;;5187999;28;20335;-77
2022/11/13 11:34:24;;;;;;;25.00;15.30;;;20.00;99.90;;;;;;5154691;28;20034;-77
2022/11/13 11:37:20;;;;;;;35.45;23.17;;;20.50;99.90;;;;;;5174922;28;20030;-76
2022/11/13 11:40:18;;;;;;;36.70;25.98;;;20.40;99.90;;;;;;5174294;28;20036;-77
2022/11/13 11:43:36;;;;;;;33.72;24.13;;;21.00;99.90;;;;;;5168371;28;20026;-76
2022/11/13 11:46:29;;;;;;;30.70;18.65;;;21.00;99.90;;;;;;5171872;28;20458;-76
2022/11/13 11:49:25;;;;;;;25.55;16.58;;;21.20;99.90;;;;;;5174925;28;20026;-76
2022/11/13 11:52:50;;;;;;;25.10;17.50;;;21.10;99.90;;;;;;5164826;28;20041;-76
2022/11/13 11:55:53;;;;;;;54.63;40.53;;;21.20;99.90;;;;;;5187885;28;20021;-76
2022/11/13 11:59:15;;;;;;;23.70;16.58;;;21.20;99.90;;;;;;5188398;28;20033;-75
2022/11/13 12:02:34;;;;;;;41.85;31.20;;;21.70;99.90;;;;;;5190506;28;20033;-76
2022/11/13 12:05:44;;;;;;;24.38;20.85;;;20.90;99.90;;;;;;5156866;28;20046;-76
2022/11/13 12:08:55;;;;;;;25.40;19.42;;;18.40;99.90;;;;;;5187649;28;20041;-76
2022/11/13 12:12:33;;;;;;;23.33;20.17;;;16.40;99.90;;;;;;5182099;28;20021;-76
2022/11/13 12:16:17;;;;;;;41.55;36.13;;;17.10;99.90;;;;;;5105409;28;20402;-76
2022/11/13 12:19:24;;;;;;;23.80;19.17;;;17.70;99.90;;;;;;5078608;29;20067;-75
2022/11/13 12:22:27;;;;;;;22.20;16.02;;;18.40;99.90;;;;;;5082673;29;20054;-75
2022/11/13 12:25:37;;;;;;;71.97;61.92;;;19.20;99.90;;;;;;5092444;29;20592;-76
2022/11/13 12:28:53;;;;;;;14.95;12.18;;;17.90;99.90;;;;;;5115294;28;20240;-76
2022/11/13 12:31:49;;;;;;;12.90;10.30;;;18.40;99.90;;;;;;5101609;28;20066;-75
2022/11/13 12:34:50;;;;;;;12.20;8.70;;;18.40;99.90;;;;;;5119019;28;20361;-74
2022/11/13 12:38:09;;;;;;;26.45;22.23;;;17.90;99.90;;;;;;5106037;29;20030;-74
2022/11/13 12:41:23;;;;;;;212.35;192.70;;;17.90;99.90;;;;;;5126067;28;20023;-75
2022/11/13 12:44:17;;;;;;;44.80;40.00;;;17.80;99.90;;;;;;5122963;28;20038;-74
2022/11/13 12:47:10;;;;;;;53.67;48.45;;;17.20;99.90;;;;;;5128835;28;20031;-76
2022/11/13 12:50:27;;;;;;;46.75;42.47;;;17.20;99.90;;;;;;5119997;28;20042;-74
2022/11/13 12:53:30;;;;;;;19.40;17.25;;;16.70;99.90;;;;;;5173215;28;20038;-76
2022/11/13 12:56:27;;;;;;;18.80;16.60;;;16.40;99.90;;;;;;5168317;28;20034;-76
2022/11/13 12:59:19;;;;;;;27.08;23.33;;;14.90;99.90;;;;;;5175764;28;20034;-75
2022/11/13 13:02:16;;;;;;;17.85;11.23;;;15.00;99.90;;;;;;5187073;28;20048;-75
2022/11/13 13:05:24;;;;;;;41.03;36.90;;;15.20;99.90;;;;;;5177831;28;20089;-75
2022/11/13 13:08:42;;;;;;;17.58;13.98;;;16.50;99.90;;;;;;5177404;28;20030;-76
2022/11/13 13:12:09;;;;;;;12.27;9.05;;;15.60;99.90;;;;;;5188418;28;20050;-75
2022/11/13 13:15:38;;;;;;;17.10;11.63;;;14.80;99.90;;;;;;5177226;28;20221;-75
2022/11/13 13:18:35;;;;;;;20.30;15.52;;;15.10;99.90;;;;;;5174336;28;20231;-76
2022/11/13 13:21:41;;;;;;;14.82;9.95;;;15.00;99.90;;;;;;5177191;28;20060;-74
2022/11/13 13:24:35;;;;;;;26.02;21.20;;;14.80;99.90;;;;;;5187363;28;20333;-75
2022/11/13 13:27:32;;;;;;;14.70;10.52;;;14.60;99.90;;;;;;5181756;28;20034;-75
2022/11/13 13:30:30;;;;;;;15.63;9.70;;;14.10;99.90;;;;;;5179849;28;20070;-74
2022/11/13 13:33:31;;;;;;;25.23;17.13;;;14.00;99.90;;;;;;5179759;28;20027;-75
2022/11/13 13:36:50;;;;;;;22.10;16.27;;;14.00;99.90;;;;;;5173351;28;20347;-74
2022/11/13 13:40:35;;;;;;;21.08;16.50;;;13.80;99.90;;;;;;5151581;28;20030;-73
2022/11/13 13:43:41;;;;;;;44.42;33.65;;;13.60;99.90;;;;;;5124144;28;20355;-72
2022/11/13 13:46:36;;;;;;;44.45;27.45;;;13.50;99.90;;;;;;5141014;28;20062;-73
2022/11/13 13:49:30;;;;;;;79.70;58.17;;;13.90;99.90;;;;;;5133086;28;20292;-75
2022/11/13 13:52:30;;;;;;;86.82;61.03;;;13.80;99.90;;;;;;5125798;28;20066;-75
2022/11/13 13:55:31;;;;;;;76.32;49.80;;;13.40;99.90;;;;;;5129795;28;20206;-75
2022/11/13 13:58:27;;;;;;;16.55;12.45;;;12.70;99.90;;;;;;5121522;28;20328;-74
2022/11/13 14:01:31;;;;;;;17.02;11.77;;;12.40;99.90;;;;;;5127059;28;20034;-74
2022/11/13 14:04:25;;;;;;;22.40;13.57;;;12.10;99.90;;;;;;5130686;28;20031;-73
2022/11/13 14:07:32;;;;;;;20.35;12.40;;;11.90;99.90;;;;;;5125673;28;20023;-72
2022/11/13 14:10:30;;;;;;;20.85;15.80;;;11.50;99.90;;;;;;5112981;28;20046;-76
2022/11/13 14:13:23;;;;;;;23.50;13.85;;;11.50;99.90;;;;;;5140179;28;20070;-73
2022/11/13 14:16:20;;;;;;;29.20;19.35;;;11.30;99.90;;;;;;5135260;28;20038;-73
2022/11/13 14:19:15;;;;;;;33.58;24.60;;;11.20;99.90;;;;;;5171507;28;20046;-73
2022/11/13 14:22:11;;;;;;;27.38;16.38;;;11.10;99.90;;;;;;5174740;28;20028;-73
2022/11/13 14:25:19;;;;;;;23.55;14.43;;;11.00;99.90;;;;;;5182652;28;20028;-73
2022/11/13 14:28:14;;;;;;;26.10;18.30;;;10.90;99.90;;;;;;5183210;28;20207;-72
2022/11/13 14:31:08;;;;;;;21.02;13.23;;;10.80;99.90;;;;;;5164604;28;20064;-74
2022/11/13 14:34:13;;;;;;;23.30;13.52;;;10.80;99.90;;;;;;5165251;28;20030;-74
2022/11/13 14:37:31;;;;;;;23.58;13.70;;;10.70;99.90;;;;;;5156674;28;20032;-73
2022/11/13 14:40:25;;;;;;;19.40;12.43;;;10.60;99.90;;;;;;5178224;28;20375;-73
2022/11/13 14:43:26;;;;;;;20.83;13.23;;;10.50;99.90;;;;;;5178982;28;20037;-73
2022/11/13 14:46:34;;;;;;;21.77;12.60;;;10.40;99.90;;;;;;5181648;28;20038;-72
2022/11/13 14:49:38;;;;;;;741.33;583.17;;;10.40;99.90;;;;;;5174371;28;20030;-74
2022/11/13 14:52:30;;;;;;;284.48;241.65;;;10.40;99.90;;;;;;5167575;28;20040;-73
2022/11/13 14:55:43;;;;;;;65.85;47.55;;;10.30;99.90;;;;;;5173503;28;20040;-75
2022/11/13 14:58:42;;;;;;;257.80;231.07;;;10.30;99.90;;;;;;5174491;28;20231;-73
2022/11/13 15:01:36;;;;;;;81.75;72.95;;;10.10;99.90;;;;;;5167096;28;20042;-74
2022/11/13 15:04:28;;;;;;;174.75;156.25;;;10.10;99.90;;;;;;5174042;28;20021;-74
2022/11/13 15:07:33;;;;;;;79.38;62.78;;;10.00;99.90;;;;;;5180781;28;20030;-74
2022/11/13 15:10:28;;;;;;;34.95;24.08;;;9.80;99.90;;;;;;5181211;28;20022;-72
2022/11/13 15:13:22;;;;;;;29.17;16.65;;;9.80;99.90;;;;;;5189977;28;20038;-72
2022/11/13 15:16:21;;;;;;;33.25;21.55;;;9.70;99.90;;;;;;5148837;28;20030;-75
2022/11/13 15:19:17;;;;;;;39.17;24.17;;;9.60;99.90;;;;;;5178238;28;20026;-73
2022/11/13 15:22:12;;;;;;;84.82;52.55;;;9.50;99.90;;;;;;5203038;28;20018;-72